createdAt,value
2022-12-15T00:00:10.248Z,87.54
2022-12-15T00:01:00.197Z,87.75
2022-12-15T00:01:50.070Z,87.83
2022-12-15T00:02:40.236Z,87.66
2022-12-15T00:03:30.521Z,87.90
2022-12-15T00:04:21.144Z,87.94
2022-12-15T00:05:11.308Z,87.66
2022-12-15T00:06:01.314Z,88.06
2022-12-15T00:06:51.281Z,88.14
2022-12-15T00:07:41.074Z,87.87
2022-12-15T00:08:31.030Z,87.64
2022-12-15T00:09:23.186Z,87.42
2022-12-15T00:10:16.479Z,87.73
2022-12-15T00:11:06.707Z,87.60
2022-12-15T00:11:56.804Z,87.46
2022-12-15T00:12:46.938Z,88.35
2022-12-15T00:13:36.714Z,87.96
2022-12-15T00:14:27.325Z,88.14
2022-12-15T00:15:17.536Z,87.61
2022-12-15T00:16:07.539Z,88.17
2022-12-15T00:16:57.346Z,87.94
2022-12-15T00:17:47.453Z,87.93
2022-12-15T00:18:37.519Z,88.03
2022-12-15T00:19:28.143Z,87.73
2022-12-15T00:20:18.066Z,87.54
2022-12-15T00:21:08.174Z,88.05
2022-12-15T00:21:57.836Z,87.69
2022-12-15T00:22:47.739Z,87.97
2022-12-15T00:23:38.620Z,87.69
2022-12-15T00:24:28.886Z,88.32
2022-12-15T00:25:18.816Z,87.69
2022-12-15T00:26:08.644Z,87.87
2022-12-15T00:26:58.519Z,87.86
2022-12-15T00:27:48.412Z,87.89
2022-12-15T00:28:38.307Z,88.05
2022-12-15T00:29:28.283Z,88.00
2022-12-15T00:30:18.364Z,88.03
2022-12-15T00:31:08.519Z,88.08
2022-12-15T00:31:58.323Z,88.06
2022-12-15T00:32:48.302Z,88.41
2022-12-15T00:33:38.031Z,88.33
2022-12-15T00:34:28.293Z,87.96
2022-12-15T00:35:18.494Z,88.13
2022-12-15T00:36:08.721Z,88.07
2022-12-15T00:36:58.866Z,87.94
2022-12-15T00:37:49.042Z,88.04
2022-12-15T00:38:38.959Z,88.30
2022-12-15T00:39:10.359Z,88.14
2022-12-15T00:39:41.828Z,87.78
2022-12-15T00:40:13.350Z,88.01
2022-12-15T00:40:44.728Z,88.29
2022-12-15T00:41:17.980Z,87.81
2022-12-15T00:41:49.428Z,88.02
2022-12-15T00:42:20.800Z,88.27
2022-12-15T00:42:52.255Z,87.73
2022-12-15T00:43:42.309Z,88.25
2022-12-15T00:44:18.941Z,88.23
2022-12-15T00:44:51.968Z,88.05
2022-12-15T00:45:43.380Z,88.22
2022-12-15T00:46:33.603Z,87.69
2022-12-15T00:47:05.311Z,88.04
2022-12-15T00:47:36.982Z,88.42
2022-12-15T00:48:08.567Z,88.27
2022-12-15T00:48:41.305Z,88.46
2022-12-15T00:49:39.011Z,87.92
2022-12-15T00:50:28.947Z,87.74
2022-12-15T00:51:00.379Z,87.91
2022-12-15T00:51:50.345Z,87.97
2022-12-15T00:52:40.027Z,88.58
2022-12-15T00:53:30.103Z,88.35
2022-12-15T00:54:20.145Z,88.01
2022-12-15T00:55:10.120Z,88.02
2022-12-15T00:56:00.659Z,88.24
2022-12-15T00:56:50.766Z,88.55
2022-12-15T00:57:40.511Z,88.10
2022-12-15T00:58:30.578Z,88.08
2022-12-15T00:59:20.603Z,88.09
2022-12-15T01:00:10.597Z,88.47
2022-12-15T01:01:00.238Z,88.59
2022-12-15T01:01:50.113Z,87.86
2022-12-15T01:02:40.820Z,87.86
2022-12-15T01:03:33.809Z,88.12
2022-12-15T01:04:23.839Z,88.47
2022-12-15T01:05:13.824Z,87.96
2022-12-15T01:06:03.595Z,88.41
2022-12-15T01:06:53.520Z,88.54
2022-12-15T01:07:43.454Z,88.49
2022-12-15T01:08:33.217Z,88.33
2022-12-15T01:09:26.151Z,88.15
2022-12-15T01:10:16.134Z,88.45
2022-12-15T01:11:06.163Z,88.44
2022-12-15T01:11:56.202Z,88.21
2022-12-15T01:12:46.277Z,88.39
2022-12-15T01:13:36.290Z,88.44
2022-12-15T01:14:26.159Z,88.42
2022-12-15T01:15:16.192Z,88.19
2022-12-15T01:16:06.391Z,88.69
2022-12-15T01:16:56.382Z,87.99
2022-12-15T01:17:46.275Z,88.36
2022-12-15T01:18:36.230Z,88.21
2022-12-15T01:19:27.450Z,88.50
2022-12-15T01:20:17.385Z,88.17
2022-12-15T01:21:03.715Z,88.63
2022-12-15T01:21:35.217Z,88.45
2022-12-15T01:22:07.448Z,88.36
2022-12-15T01:22:40.359Z,87.84
2022-12-15T01:23:11.810Z,88.24
2022-12-15T01:23:43.154Z,88.18
2022-12-15T01:24:14.582Z,87.93
2022-12-15T01:24:46.151Z,87.89
2022-12-15T01:25:19.047Z,88.66
2022-12-15T01:25:52.384Z,88.12
2022-12-15T01:26:23.954Z,88.45
2022-12-15T01:26:55.519Z,88.45
2022-12-15T01:27:26.934Z,88.39
2022-12-15T01:27:58.423Z,88.63
2022-12-15T01:28:30.063Z,88.50
2022-12-15T01:29:01.498Z,88.10
2022-12-15T01:29:32.924Z,88.60
2022-12-15T01:30:06.126Z,88.72
2022-12-15T01:30:37.632Z,88.27
2022-12-15T01:31:11.608Z,88.77
2022-12-15T01:31:44.123Z,88.33
2022-12-15T01:32:15.748Z,88.10
2022-12-15T01:32:47.440Z,88.49
2022-12-15T01:33:20.019Z,88.20
2022-12-15T01:33:54.423Z,88.13
2022-12-15T01:34:25.950Z,88.07
2022-12-15T01:34:57.490Z,87.77
2022-12-15T01:35:29.004Z,88.21
2022-12-15T01:36:02.177Z,88.01
2022-12-15T01:36:33.769Z,88.22
2022-12-15T01:37:05.368Z,88.00
2022-12-15T01:37:37.153Z,88.43
2022-12-15T01:38:27.856Z,88.53
2022-12-15T01:38:59.211Z,88.23
2022-12-15T01:39:50.587Z,88.49
2022-12-15T01:40:40.840Z,88.08
2022-12-15T01:41:12.477Z,87.75
2022-12-15T01:41:44.060Z,88.04
2022-12-15T01:42:15.629Z,88.38
2022-12-15T01:42:47.182Z,88.35
2022-12-15T01:43:22.415Z,88.32
2022-12-15T01:43:53.856Z,87.94
2022-12-15T01:44:25.378Z,88.49
2022-12-15T01:45:24.441Z,87.99
2022-12-15T01:46:01.142Z,88.56
2022-12-15T01:46:32.555Z,88.07
2022-12-15T01:47:05.417Z,88.17
2022-12-15T01:47:37.080Z,88.56
2022-12-15T01:48:12.651Z,88.33
2022-12-15T01:48:51.872Z,88.05
2022-12-15T01:49:30.992Z,88.05
2022-12-15T01:50:02.691Z,88.28
2022-12-15T01:50:44.093Z,87.98
2022-12-15T01:51:35.382Z,88.36
2022-12-15T01:52:09.031Z,88.71
2022-12-15T01:52:40.709Z,88.85
2022-12-15T01:53:14.017Z,88.61
2022-12-15T01:53:53.934Z,88.14
2022-12-15T01:54:31.260Z,88.22
2022-12-15T01:55:03.082Z,88.25
2022-12-15T01:55:35.125Z,88.08
2022-12-15T01:56:08.892Z,88.32
2022-12-15T01:56:45.772Z,88.27
2022-12-15T01:57:25.904Z,88.11
2022-12-15T01:58:03.371Z,88.06
2022-12-15T01:58:36.571Z,88.61
2022-12-15T01:59:11.096Z,88.17
2022-12-15T01:59:50.880Z,88.28
2022-12-15T02:00:22.513Z,88.41
2022-12-15T02:00:54.110Z,88.45
2022-12-15T02:01:25.792Z,88.13
2022-12-15T02:01:57.648Z,88.58
2022-12-15T02:02:34.385Z,88.54
2022-12-15T02:03:10.344Z,88.60
2022-12-15T02:03:43.864Z,88.74
2022-12-15T02:04:18.096Z,88.90
2022-12-15T02:04:52.899Z,89.15
2022-12-15T02:05:24.789Z,89.10
2022-12-15T02:05:57.918Z,89.00
2022-12-15T02:06:30.224Z,88.96
2022-12-15T02:07:01.841Z,88.81
2022-12-15T02:07:33.276Z,88.66
2022-12-15T02:08:05.210Z,88.49
2022-12-15T02:08:37.913Z,89.13
2022-12-15T02:09:09.550Z,88.76
2022-12-15T02:09:43.464Z,89.02
2022-12-15T02:10:15.194Z,89.18
2022-12-15T02:10:56.247Z,88.58
2022-12-15T02:11:46.173Z,88.70
2022-12-15T02:12:48.506Z,88.86
2022-12-15T02:13:44.839Z,88.88
2022-12-15T02:14:25.448Z,89.26
2022-12-15T02:15:06.096Z,89.25
2022-12-15T02:15:47.800Z,88.87
2022-12-15T02:16:34.204Z,88.66
2022-12-15T02:17:21.699Z,88.60
2022-12-15T02:18:08.007Z,89.38
2022-12-15T02:18:58.959Z,89.12
2022-12-15T02:19:52.225Z,89.09
2022-12-15T02:20:41.906Z,89.27
2022-12-15T02:21:37.299Z,89.29
2022-12-15T02:22:40.930Z,89.37
2022-12-15T02:23:34.374Z,88.81
2022-12-15T02:24:30.967Z,89.20
2022-12-15T02:25:11.446Z,88.83
2022-12-15T02:26:06.147Z,88.55
2022-12-15T02:26:56.200Z,89.00
2022-12-15T02:28:57.702Z,88.62
2022-12-15T02:29:57.048Z,89.20
2022-12-15T02:30:33.455Z,89.06
2022-12-15T02:31:34.105Z,89.33
2022-12-15T02:32:13.741Z,88.85
2022-12-15T02:32:47.874Z,88.53
2022-12-15T02:33:27.307Z,89.17
2022-12-15T02:34:26.436Z,89.21
2022-12-15T02:35:11.825Z,89.00
2022-12-15T02:36:03.760Z,89.35
2022-12-15T02:36:49.410Z,88.81
2022-12-15T02:37:29.074Z,88.87
2022-12-15T02:38:00.673Z,88.96
2022-12-15T02:38:41.401Z,88.84
2022-12-15T02:39:13.618Z,88.92
2022-12-15T02:39:45.463Z,88.72
2022-12-15T02:40:17.503Z,88.58
2022-12-15T02:40:48.878Z,88.98
2022-12-15T02:41:39.508Z,89.31
2022-12-15T02:42:11.907Z,89.04
2022-12-15T02:42:51.343Z,89.16
2022-12-15T02:43:22.806Z,89.24
2022-12-15T02:43:54.160Z,89.04
2022-12-15T02:44:32.184Z,88.90
2022-12-15T02:45:09.683Z,89.00
2022-12-15T02:46:04.813Z,88.59
2022-12-15T02:47:03.335Z,88.59
2022-12-15T02:47:37.856Z,89.55
2022-12-15T02:48:23.216Z,88.99
2022-12-15T02:49:01.416Z,88.67
2022-12-15T02:49:49.679Z,89.13
2022-12-15T02:50:33.119Z,88.62
2022-12-15T02:51:18.689Z,89.12
2022-12-15T02:52:21.352Z,88.84
2022-12-15T02:53:21.676Z,88.81
2022-12-15T02:54:19.215Z,88.88
2022-12-15T02:55:28.043Z,88.52
2022-12-15T02:56:33.191Z,88.40
2022-12-15T02:57:37.654Z,88.64
2022-12-15T02:58:33.695Z,88.95
2022-12-15T02:59:13.331Z,89.12
2022-12-15T03:00:02.672Z,89.19
2022-12-15T03:00:40.053Z,88.91
2022-12-15T03:01:27.572Z,89.34
2022-12-15T03:02:06.104Z,88.49
2022-12-15T03:02:44.896Z,88.81
2022-12-15T03:03:20.598Z,88.73
2022-12-15T03:03:52.795Z,89.08
2022-12-15T03:04:26.030Z,89.13
2022-12-15T03:04:59.004Z,88.74
2022-12-15T03:05:32.131Z,89.10
2022-12-15T03:06:04.027Z,88.60
2022-12-15T03:06:35.651Z,88.74
2022-12-15T03:07:10.411Z,88.92
2022-12-15T03:07:43.015Z,88.50
2022-12-15T03:08:14.507Z,89.17
2022-12-15T03:08:46.155Z,89.06
2022-12-15T03:09:17.901Z,89.00
2022-12-15T03:09:49.549Z,89.16
2022-12-15T03:10:24.972Z,88.95
2022-12-15T03:10:58.086Z,89.03
2022-12-15T03:11:30.002Z,89.34
2022-12-15T03:12:01.497Z,88.99
2022-12-15T03:12:32.972Z,89.60
2022-12-15T03:13:04.361Z,89.16
2022-12-15T03:13:35.936Z,88.95
2022-12-15T03:14:07.365Z,88.93
2022-12-15T03:14:38.799Z,88.93
2022-12-15T03:15:10.636Z,89.51
2022-12-15T03:15:42.079Z,89.02
2022-12-15T03:16:13.673Z,89.41
2022-12-15T03:16:47.850Z,89.44
2022-12-15T03:17:19.532Z,89.67
2022-12-15T03:17:50.978Z,88.99
2022-12-15T03:18:22.427Z,89.02
2022-12-15T03:18:56.018Z,89.16
2022-12-15T03:19:27.665Z,88.87
2022-12-15T03:19:59.224Z,89.10
2022-12-15T03:20:30.725Z,88.98
2022-12-15T03:21:02.402Z,88.74
2022-12-15T03:21:33.968Z,88.98
2022-12-15T03:22:05.638Z,88.59
2022-12-15T03:22:37.578Z,88.99
2022-12-15T03:23:09.077Z,88.87
2022-12-15T03:23:42.205Z,88.98
2022-12-15T03:24:13.734Z,88.67
2022-12-15T03:24:45.226Z,89.08
2022-12-15T03:25:16.777Z,88.65
2022-12-15T03:25:49.915Z,89.02
2022-12-15T03:26:21.862Z,89.19
2022-12-15T03:26:53.335Z,89.11
2022-12-15T03:27:25.087Z,89.10
2022-12-15T03:27:56.900Z,88.89
2022-12-15T03:28:30.754Z,89.18
2022-12-15T03:29:02.404Z,88.56
2022-12-15T03:29:34.364Z,88.75
2022-12-15T03:30:06.607Z,88.65
2022-12-15T03:30:38.689Z,88.70
2022-12-15T03:31:10.378Z,89.15
2022-12-15T03:31:41.872Z,89.05
2022-12-15T03:32:13.961Z,88.92
2022-12-15T03:32:45.492Z,89.40
2022-12-15T03:33:17.097Z,88.83
2022-12-15T03:33:48.621Z,89.24
2022-12-15T03:34:20.157Z,89.32
2022-12-15T03:34:51.765Z,89.18
2022-12-15T03:35:23.476Z,89.10
2022-12-15T03:35:55.464Z,89.42
2022-12-15T03:36:27.084Z,89.49
2022-12-15T03:36:59.225Z,89.25
2022-12-15T03:37:33.306Z,89.46
2022-12-15T03:38:04.869Z,89.15
2022-12-15T03:38:36.475Z,89.55
2022-12-15T03:39:10.431Z,89.52
2022-12-15T03:39:41.924Z,89.97
2022-12-15T03:40:13.988Z,89.64
2022-12-15T03:40:45.511Z,89.84
2022-12-15T03:41:18.245Z,90.10
2022-12-15T03:41:49.790Z,89.67
2022-12-15T03:42:41.177Z,89.63
2022-12-15T03:43:12.654Z,89.53
2022-12-15T03:43:46.369Z,90.05
2022-12-15T03:44:21.311Z,89.91
2022-12-15T03:44:52.786Z,89.48
2022-12-15T03:45:26.695Z,89.46
2022-12-15T03:45:58.190Z,89.45
2022-12-15T03:46:29.759Z,89.62
2022-12-15T03:47:03.510Z,89.46
2022-12-15T03:47:35.411Z,89.91
2022-12-15T03:48:06.802Z,89.71
2022-12-15T03:48:38.305Z,89.65
2022-12-15T03:49:09.657Z,90.06
2022-12-15T03:49:42.409Z,89.76
2022-12-15T03:50:16.913Z,90.35
2022-12-15T03:50:49.598Z,89.95
2022-12-15T03:51:23.324Z,89.81
2022-12-15T03:51:57.385Z,89.84
2022-12-15T03:52:28.956Z,90.07
2022-12-15T03:53:02.682Z,89.90
2022-12-15T03:53:34.566Z,89.70
2022-12-15T03:54:07.425Z,90.14
2022-12-15T03:54:38.900Z,90.16
2022-12-15T03:55:11.632Z,90.09
2022-12-15T03:55:43.384Z,90.16
2022-12-15T03:56:15.615Z,90.28
2022-12-15T03:56:47.128Z,89.57
2022-12-15T03:57:21.205Z,90.08
2022-12-15T03:57:52.956Z,89.81
2022-12-15T03:58:24.566Z,90.09
2022-12-15T03:58:56.144Z,90.00
2022-12-15T03:59:27.567Z,89.54
2022-12-15T03:59:59.468Z,90.12
2022-12-15T04:00:31.101Z,89.89
2022-12-15T04:01:13.437Z,90.24
2022-12-15T04:01:49.150Z,89.86
2022-12-15T04:02:21.254Z,89.77
2022-12-15T04:02:53.763Z,89.97
2022-12-15T04:03:25.388Z,89.72
2022-12-15T04:04:00.922Z,89.83
2022-12-15T04:04:32.791Z,89.79
2022-12-15T04:05:04.612Z,89.72
2022-12-15T04:05:36.467Z,90.29
2022-12-15T04:06:07.994Z,89.58
2022-12-15T04:06:39.548Z,89.90
2022-12-15T04:07:10.962Z,90.17
2022-12-15T04:07:42.571Z,90.11
2022-12-15T04:08:14.084Z,89.91
2022-12-15T04:08:45.491Z,90.40
2022-12-15T04:09:21.428Z,89.74
2022-12-15T04:09:52.854Z,90.17
2022-12-15T04:10:31.937Z,89.88
2022-12-15T04:11:05.722Z,90.11
2022-12-15T04:11:39.587Z,90.60
2022-12-15T04:12:11.833Z,89.96
2022-12-15T04:12:43.343Z,89.64
2022-12-15T04:13:14.755Z,89.66
2022-12-15T04:13:46.599Z,90.12
2022-12-15T04:14:17.992Z,89.51
2022-12-15T04:14:49.593Z,90.43
2022-12-15T04:15:21.125Z,89.98
2022-12-15T04:15:52.614Z,90.26
2022-12-15T04:16:24.086Z,89.71
2022-12-15T04:16:56.153Z,89.98
2022-12-15T04:17:27.636Z,90.33
2022-12-15T04:18:01.223Z,90.02
2022-12-15T04:18:32.699Z,89.90
2022-12-15T04:19:22.483Z,90.33
2022-12-15T04:20:12.146Z,90.14
2022-12-15T04:20:43.492Z,90.48
2022-12-15T04:21:15.811Z,90.31
2022-12-15T04:21:47.283Z,90.43
2022-12-15T04:22:18.760Z,90.01
2022-12-15T04:22:51.894Z,90.41
2022-12-15T04:23:23.681Z,90.69
2022-12-15T04:24:13.621Z,90.35
2022-12-15T04:25:03.721Z,90.61
2022-12-15T04:25:54.723Z,90.76
2022-12-15T04:26:44.585Z,90.11
2022-12-15T04:27:34.731Z,90.63
2022-12-15T04:28:26.478Z,90.34
2022-12-15T04:29:16.567Z,90.83
2022-12-15T04:30:06.552Z,90.49
2022-12-15T04:30:58.772Z,90.68
2022-12-15T04:31:52.085Z,90.60
2022-12-15T04:32:42.295Z,90.85
2022-12-15T04:33:32.449Z,90.85
2022-12-15T04:34:26.488Z,91.06
2022-12-15T04:35:16.263Z,90.92
2022-12-15T04:36:07.587Z,91.02
2022-12-15T04:36:59.141Z,91.05
2022-12-15T04:37:48.851Z,91.14
2022-12-15T04:38:43.919Z,90.79
2022-12-15T04:39:40.941Z,90.63
2022-12-15T04:40:30.675Z,91.07
2022-12-15T04:41:20.360Z,90.59
2022-12-15T04:42:12.824Z,90.91
2022-12-15T04:43:05.419Z,90.83
2022-12-15T04:43:55.063Z,90.83
2022-12-15T04:44:45.175Z,90.74
2022-12-15T04:45:43.745Z,90.45
2022-12-15T04:46:33.862Z,90.57
2022-12-15T04:47:23.817Z,90.26
2022-12-15T04:48:13.599Z,90.58
2022-12-15T04:49:03.329Z,90.46
2022-12-15T04:49:53.149Z,90.25
2022-12-15T04:50:42.716Z,90.17
2022-12-15T04:51:32.564Z,90.30
2022-12-15T04:52:23.026Z,90.54
2022-12-15T04:53:13.101Z,90.62
2022-12-15T04:54:04.222Z,90.07
2022-12-15T04:54:53.885Z,90.23
2022-12-15T04:55:43.632Z,90.22
2022-12-15T04:56:34.926Z,90.40
2022-12-15T04:57:25.291Z,90.10
2022-12-15T04:58:14.889Z,90.45
2022-12-15T04:59:05.762Z,90.11
2022-12-15T04:59:55.531Z,90.25
2022-12-15T05:00:45.530Z,90.77
2022-12-15T05:01:35.403Z,90.43
2022-12-15T05:02:25.598Z,90.57
2022-12-15T05:03:18.527Z,89.82
2022-12-15T05:04:08.930Z,90.10
2022-12-15T05:04:58.890Z,91.09
2022-12-15T05:05:48.631Z,90.41
2022-12-15T05:06:38.994Z,90.32
2022-12-15T05:07:29.283Z,90.10
2022-12-15T05:08:19.496Z,90.82
2022-12-15T05:09:09.503Z,90.48
2022-12-15T05:10:02.964Z,90.60
2022-12-15T05:10:53.771Z,90.27
2022-12-15T05:11:43.680Z,90.31
2022-12-15T05:12:33.746Z,90.58
2022-12-15T05:13:25.839Z,90.50
2022-12-15T05:14:15.645Z,90.91
2022-12-15T05:15:05.719Z,90.66
2022-12-15T05:15:55.928Z,90.94
2022-12-15T05:16:45.788Z,91.05
2022-12-15T05:17:41.340Z,90.75
2022-12-15T05:18:31.741Z,90.72
2022-12-15T05:19:21.855Z,90.73
2022-12-15T05:20:11.875Z,90.77
2022-12-15T05:21:01.860Z,90.93
2022-12-15T05:21:51.867Z,90.90
2022-12-15T05:22:41.849Z,90.61
2022-12-15T05:23:32.181Z,90.61
2022-12-15T05:24:22.350Z,90.70
2022-12-15T05:25:12.236Z,90.69
2022-12-15T05:26:02.578Z,90.64
2022-12-15T05:26:53.165Z,90.68
2022-12-15T05:27:43.813Z,90.33
2022-12-15T05:28:34.099Z,90.02
2022-12-15T05:29:23.995Z,90.23
2022-12-15T05:30:14.046Z,90.17
2022-12-15T05:31:03.802Z,90.32
2022-12-15T05:31:55.067Z,90.52
2022-12-15T05:32:26.578Z,90.57
2022-12-15T05:32:58.013Z,90.62
2022-12-15T05:33:29.796Z,90.18
2022-12-15T05:34:05.577Z,90.11
2022-12-15T05:34:38.203Z,90.00
2022-12-15T05:35:09.723Z,90.48
2022-12-15T05:35:41.484Z,90.23
2022-12-15T05:36:13.012Z,90.53
2022-12-15T05:36:44.518Z,90.59
2022-12-15T05:37:16.093Z,90.25
2022-12-15T05:37:47.687Z,90.44
2022-12-15T05:38:19.118Z,90.28
2022-12-15T05:38:51.596Z,90.27
2022-12-15T05:39:24.471Z,90.66
2022-12-15T05:39:56.087Z,90.03
2022-12-15T05:40:27.555Z,90.05
2022-12-15T05:41:00.074Z,90.50
2022-12-15T05:41:31.443Z,90.24
2022-12-15T05:42:03.565Z,90.30
2022-12-15T05:42:35.038Z,90.36
2022-12-15T05:43:06.498Z,90.26
2022-12-15T05:43:38.063Z,90.21
2022-12-15T05:44:09.953Z,90.21
2022-12-15T05:44:41.418Z,89.90
2022-12-15T05:45:13.030Z,90.33
2022-12-15T05:45:44.467Z,89.76
2022-12-15T05:46:15.989Z,90.23
2022-12-15T05:46:47.925Z,90.72
2022-12-15T05:47:19.505Z,89.84
2022-12-15T05:47:52.457Z,90.06
2022-12-15T05:48:23.977Z,90.14
2022-12-15T05:48:55.528Z,90.23
2022-12-15T05:49:26.963Z,90.49
2022-12-15T05:49:58.462Z,89.82
2022-12-15T05:50:29.865Z,89.73
2022-12-15T05:51:09.342Z,89.67
2022-12-15T05:51:42.538Z,90.18
2022-12-15T05:52:14.025Z,90.23
2022-12-15T05:52:49.314Z,90.58
2022-12-15T05:53:21.195Z,90.32
2022-12-15T05:53:52.702Z,90.06
2022-12-15T05:54:24.166Z,89.74
2022-12-15T05:54:55.656Z,89.94
2022-12-15T05:55:27.179Z,90.09
2022-12-15T05:56:02.860Z,90.08
2022-12-15T05:56:35.151Z,90.44
2022-12-15T05:57:06.950Z,89.93
2022-12-15T05:57:38.564Z,90.06
2022-12-15T05:58:10.118Z,89.99
2022-12-15T05:58:45.320Z,89.97
2022-12-15T05:59:18.984Z,90.14
2022-12-15T05:59:50.556Z,89.79
2022-12-15T06:00:22.343Z,89.77
2022-12-15T06:00:53.791Z,90.29
2022-12-15T06:01:26.526Z,89.87
2022-12-15T06:01:58.205Z,90.12
2022-12-15T06:02:29.826Z,90.20
2022-12-15T06:03:02.997Z,90.15
2022-12-15T06:03:36.377Z,90.20
2022-12-15T06:04:08.139Z,90.05
2022-12-15T06:04:39.789Z,90.30
2022-12-15T06:05:11.459Z,90.07
2022-12-15T06:05:43.163Z,89.76
2022-12-15T06:06:14.772Z,89.90
2022-12-15T06:06:46.229Z,89.95
2022-12-15T06:07:17.715Z,90.08
2022-12-15T06:07:49.139Z,90.13
2022-12-15T06:08:24.035Z,89.78
2022-12-15T06:08:56.652Z,89.63
2022-12-15T06:09:29.008Z,89.82
2022-12-15T06:10:00.425Z,90.19
2022-12-15T06:10:31.820Z,89.81
2022-12-15T06:11:03.726Z,90.49
2022-12-15T06:11:35.144Z,89.83
2022-12-15T06:12:06.816Z,90.67
2022-12-15T06:12:38.330Z,90.25
2022-12-15T06:13:09.908Z,89.66
2022-12-15T06:13:42.237Z,89.89
2022-12-15T06:14:14.180Z,90.09
2022-12-15T06:14:45.874Z,89.82
2022-12-15T06:15:21.478Z,89.84
2022-12-15T07:30:52.046Z,90.05
2022-12-15T07:47:56.619Z,90.22
2022-12-15T07:51:45.231Z,90.62
2022-12-15T07:52:17.019Z,90.51
2022-12-15T07:52:50.760Z,90.46
2022-12-15T07:53:22.205Z,90.85
2022-12-15T07:53:56.068Z,90.93
2022-12-15T07:54:30.457Z,91.13
2022-12-15T07:55:01.987Z,90.66
2022-12-15T07:56:04.962Z,91.04
2022-12-15T07:56:27.102Z,90.87
2022-12-15T07:57:00.079Z,90.98
2022-12-15T07:57:32.848Z,90.81
2022-12-15T07:58:04.417Z,90.97
2022-12-15T07:58:36.521Z,91.03
2022-12-15T07:59:08.270Z,91.02
2022-12-15T07:59:39.719Z,90.87
2022-12-15T08:00:11.669Z,90.79
2022-12-15T08:00:48.560Z,90.98
2022-12-15T08:01:20.742Z,90.71
2022-12-15T08:01:53.633Z,91.23
2022-12-15T08:02:25.345Z,91.13
2022-12-15T08:02:57.244Z,91.34
2022-12-15T08:03:32.694Z,91.70
2022-12-15T08:04:04.979Z,91.38
2022-12-15T08:04:50.322Z,90.91
2022-12-15T08:05:31.435Z,91.13
2022-12-15T08:06:18.098Z,90.74
2022-12-15T08:27:55.977Z,91.63
2022-12-15T08:28:27.520Z,91.16
2022-12-15T08:29:31.917Z,91.33
2022-12-15T08:29:55.358Z,91.01
2022-12-15T08:30:26.862Z,91.65
2022-12-15T08:31:05.802Z,91.81
2022-12-15T08:31:37.471Z,91.74
2022-12-15T08:32:11.893Z,91.74
2022-12-15T08:32:48.624Z,91.84
2022-12-15T08:33:24.176Z,91.42
2022-12-15T08:33:55.857Z,92.11
2022-12-15T08:34:28.662Z,92.09
2022-12-15T08:35:00.140Z,92.40
2022-12-15T08:35:55.642Z,92.30
2022-12-15T08:36:23.214Z,92.19
2022-12-15T08:36:55.524Z,92.31
2022-12-15T08:37:27.145Z,92.38
2022-12-15T08:38:05.490Z,92.20
2022-12-15T08:38:40.879Z,92.70
2022-12-15T08:39:12.590Z,92.37
2022-12-15T08:39:44.097Z,92.29
2022-12-15T08:40:15.584Z,92.37
2022-12-15T08:40:47.144Z,92.78
2022-12-15T08:41:22.859Z,92.62
2022-12-15T08:41:55.779Z,92.51
2022-12-15T08:42:28.035Z,92.49
2022-12-15T08:42:59.638Z,92.10
2022-12-15T08:43:31.579Z,92.36
2022-12-15T08:44:03.738Z,92.63
2022-12-15T08:44:35.338Z,92.32
2022-12-15T08:45:07.475Z,92.37
2022-12-15T08:45:41.658Z,92.56
2022-12-15T08:46:14.105Z,92.92
2022-12-15T08:46:45.736Z,92.95
2022-12-15T08:47:17.326Z,93.19
2022-12-15T08:47:48.823Z,93.26
2022-12-15T08:48:20.277Z,93.07
2022-12-15T08:48:52.952Z,92.78
2022-12-15T08:49:25.716Z,92.77
2022-12-15T08:49:57.194Z,93.20
2022-12-15T08:50:28.706Z,92.98
2022-12-15T08:51:00.291Z,92.78
2022-12-15T08:51:33.476Z,93.31
2022-12-15T08:52:05.034Z,93.27
2022-12-15T08:52:55.271Z,93.21
2022-12-15T08:53:32.923Z,93.17
2022-12-15T08:54:04.538Z,93.22
2022-12-15T08:54:36.038Z,93.16
2022-12-15T08:55:11.852Z,93.64
2022-12-15T08:55:43.380Z,93.50
2022-12-15T08:56:17.194Z,93.30
2022-12-15T08:56:49.365Z,93.06
2022-12-15T08:57:20.878Z,93.31
2022-12-15T08:58:12.340Z,93.62
2022-12-15T08:58:45.403Z,93.89
2022-12-15T08:59:17.144Z,93.56
2022-12-15T08:59:48.687Z,93.78
2022-12-15T09:00:20.477Z,93.95
2022-12-15T09:00:59.458Z,94.13
2022-12-15T09:02:04.015Z,93.93
2022-12-15T09:02:28.361Z,94.35
2022-12-15T09:03:01.080Z,94.25
2022-12-15T09:03:36.260Z,94.35
2022-12-15T09:04:07.978Z,93.97
2022-12-15T09:04:40.807Z,94.21
2022-12-15T09:05:12.383Z,93.98
2022-12-15T09:05:43.870Z,94.18
2022-12-15T09:06:20.656Z,94.38
2022-12-15T09:06:52.236Z,94.30
2022-12-15T09:07:24.983Z,94.26
2022-12-15T09:08:00.462Z,94.32
2022-12-15T09:08:35.025Z,94.06
2022-12-15T09:09:12.352Z,94.01
2022-12-15T09:09:44.560Z,94.23
2022-12-15T09:10:16.147Z,93.65
2022-12-15T09:10:47.698Z,94.10
2022-12-15T09:11:24.716Z,93.98
2022-12-15T09:11:56.169Z,94.00
2022-12-15T09:12:28.409Z,94.21
2022-12-15T09:12:59.895Z,94.16
2022-12-15T09:13:32.109Z,94.32
2022-12-15T09:14:04.747Z,94.40
2022-12-15T09:14:36.357Z,94.67
2022-12-15T09:15:08.456Z,94.72
2022-12-15T09:16:08.381Z,94.31
2022-12-15T09:16:35.124Z,94.81
2022-12-15T09:17:06.727Z,94.53
2022-12-15T09:17:38.363Z,94.72
2022-12-15T09:18:09.886Z,95.04
2022-12-15T09:18:46.748Z,94.64
2022-12-15T09:19:20.496Z,95.06
2022-12-15T09:19:52.899Z,94.81
2022-12-15T09:20:24.477Z,95.23
2022-12-15T09:20:56.045Z,94.98
2022-12-15T09:21:30.257Z,95.18
2022-12-15T09:22:01.901Z,95.29
2022-12-15T09:22:33.541Z,95.07
2022-12-15T09:23:05.006Z,94.76
2022-12-15T09:23:37.204Z,95.26
2022-12-15T09:24:17.691Z,95.41
2022-12-15T09:24:53.933Z,95.27
2022-12-15T09:25:25.436Z,95.56
2022-12-15T09:26:05.666Z,95.06
2022-12-15T09:26:37.219Z,95.38
2022-12-15T09:27:08.687Z,95.83
2022-12-15T09:27:41.261Z,95.32
2022-12-15T09:28:14.124Z,95.34
2022-12-15T09:28:50.121Z,95.14
2022-12-15T09:29:22.475Z,95.20
2022-12-15T09:29:54.069Z,95.16
2022-12-15T09:30:25.794Z,95.31
2022-12-15T09:31:10.232Z,95.15
2022-12-15T09:31:44.605Z,95.61
2022-12-15T09:32:16.242Z,95.27
2022-12-15T09:32:47.711Z,95.19
2022-12-15T09:33:19.143Z,95.56
2022-12-15T09:33:52.749Z,95.65
2022-12-15T09:34:24.298Z,95.75
2022-12-15T09:34:55.995Z,95.41
2022-12-15T09:35:28.116Z,95.82
2022-12-15T09:35:59.688Z,95.96
2022-12-15T09:36:35.278Z,95.88
2022-12-15T09:37:06.847Z,95.81
2022-12-15T09:37:38.334Z,95.84
2022-12-15T09:38:10.096Z,95.74
2022-12-15T09:38:43.117Z,95.75
2022-12-15T09:39:16.661Z,95.82
2022-12-15T09:39:49.027Z,96.05
2022-12-15T09:40:20.574Z,96.12
2022-12-15T09:40:52.184Z,95.86
2022-12-15T09:41:27.272Z,96.23
2022-12-15T09:42:04.038Z,95.76
2022-12-15T09:42:35.925Z,96.17
2022-12-15T09:43:33.870Z,96.30
2022-12-15T09:44:14.969Z,96.22
2022-12-15T09:44:46.769Z,96.30
2022-12-15T09:45:22.376Z,96.02
2022-12-15T09:46:06.998Z,96.35
2022-12-15T09:46:53.667Z,95.90
2022-12-15T09:47:46.698Z,96.05
2022-12-15T09:48:21.975Z,96.13
2022-12-15T09:48:55.610Z,96.03
2022-12-15T09:49:29.763Z,96.29
2022-12-15T09:50:04.440Z,96.21
2022-12-15T09:50:38.799Z,95.95
2022-12-15T09:51:16.402Z,96.78
2022-12-15T09:52:12.002Z,96.59
2022-12-15T09:52:54.899Z,96.48
2022-12-15T09:53:53.671Z,96.24
2022-12-15T09:54:18.759Z,96.22
2022-12-15T09:54:50.634Z,96.29
2022-12-15T09:55:30.289Z,96.52
2022-12-15T09:56:10.942Z,96.38
2022-12-15T09:56:50.163Z,96.44
2022-12-15T09:57:38.052Z,96.69
2022-12-15T09:58:50.618Z,96.37
2022-12-15T09:59:40.509Z,96.68
2022-12-15T10:00:15.872Z,96.57
2022-12-15T10:01:08.720Z,96.51
2022-12-15T10:02:17.487Z,96.78
2022-12-15T10:04:14.215Z,96.80
2022-12-15T10:04:56.115Z,96.68
2022-12-15T10:06:37.339Z,96.47
2022-12-15T10:07:26.465Z,96.73
2022-12-15T10:07:59.541Z,96.80
2022-12-15T10:09:16.381Z,96.76
2022-12-15T10:09:47.919Z,96.81
2022-12-15T10:10:19.962Z,96.80
2022-12-15T10:10:58.572Z,96.87
2022-12-15T10:11:50.375Z,96.85
2022-12-15T10:12:42.027Z,96.92
2022-12-15T10:13:50.301Z,96.80
2022-12-15T10:14:27.086Z,96.80
2022-12-15T10:15:16.843Z,96.99
2022-12-15T10:16:01.015Z,96.99
2022-12-15T10:16:50.921Z,97.11
2022-12-15T10:18:00.286Z,97.07
2022-12-15T10:18:45.009Z,97.29
2022-12-15T10:19:50.193Z,97.04
2022-12-15T10:20:28.610Z,96.94